Time;durP1;ratioP1;P1;durP2;ratioP2;P2;SDS_P1;SDS_P2;PMS_P1;PMS_P2;Temp;Humidity;BMP_temperature;BMP_pressure;BME280_temperature;BME280_humidity;BME280_pressure;Samples;Min_cycle;Max_cycle;Signal;HPM_P1;HPM_P2
2023/08/06 00:02:03;;;;;;;2.65;2.03;;;;;;;17.87;66.33;96324.88;4941089;28;20172;-79
2023/08/06 00:04:28;;;;;;;3.90;1.85;;;;;;;17.93;65.84;96326.28;4991422;28;20101;-81
2023/08/06 00:06:53;;;;;;;2.35;2.03;;;;;;;17.88;66.35;96321.16;4963982;28;20324;-79
2023/08/06 00:09:19;;;;;;;2.30;1.60;;;;;;;17.97;65.67;96327.19;4965517;28;20665;-80
2023/08/06 00:11:46;;;;;;;2.20;1.63;;;;;;;17.99;66.30;96321.59;4939251;28;20279;-80
2023/08/06 00:14:12;;;;;;;2.50;1.85;;;;;;;18.02;65.48;96313.09;4948086;28;20195;-79
2023/08/06 00:16:37;;;;;;;2.35;1.80;;;;;;;17.98;65.97;96317.44;4932999;28;20100;-79
2023/08/06 00:19:02;;;;;;;2.35;2.00;;;;;;;17.70;66.16;96304.56;4932017;28;20622;-80
2023/08/06 00:21:28;;;;;;;3.03;1.90;;;;;;;17.79;66.25;96314.03;4931729;28;20289;-79
2023/08/06 00:23:53;;;;;;;2.67;1.88;;;;;;;17.78;66.03;96319.59;4935451;28;20212;-79
2023/08/06 00:26:19;;;;;;;3.10;1.90;;;;;;;18.01;65.67;96329.97;4963920;28;20227;-80
2023/08/06 00:28:44;;;;;;;2.00;1.63;;;;;;;17.99;65.90;96321.59;4948734;28;20262;-80
2023/08/06 00:31:10;;;;;;;2.95;1.90;;;;;;;17.96;65.47;96310.63;4965033;28;20172;-78
2023/08/06 00:33:35;;;;;;;3.60;1.55;;;;;;;18.05;64.79;96307.19;4958102;28;20600;-80
2023/08/06 00:36:00;;;;;;;3.05;1.70;;;;;;;17.95;65.87;96295.13;4952258;28;20682;-81
2023/08/06 00:38:26;;;;;;;2.53;1.80;;;;;;;18.08;65.48;96291.53;4990397;28;20220;-80
2023/08/06 00:40:51;;;;;;;3.38;2.17;;;;;;;17.94;65.27;96286.47;4924610;28;20327;-80
2023/08/06 00:43:17;;;;;;;1.80;1.35;;;;;;;18.09;65.00;96281.75;4973756;28;20190;-79
2023/08/06 00:45:43;;;;;;;2.28;1.77;;;;;;;18.03;65.41;96278.53;4954867;28;20321;-80
2023/08/06 00:48:08;;;;;;;2.75;1.45;;;;;;;18.10;64.88;96265.66;4957471;28;20249;-79
2023/08/06 00:50:33;;;;;;;11.23;1.90;;;;;;;18.08;65.43;96265.19;4971413;28;20294;-79
2023/08/06 00:52:59;;;;;;;4.70;1.58;;;;;;;18.17;65.23;96267.03;4956772;28;20102;-80
2023/08/06 00:55:25;;;;;;;1.45;1.30;;;;;;;18.18;65.40;96272.00;4982487;28;20688;-79
2023/08/06 00:57:52;;;;;;;2.83;1.52;;;;;;;18.17;65.22;96264.41;4944770;28;20195;-80
2023/08/06 01:00:25;;;;;;;2.47;1.63;;;;;;;17.79;65.65;96232.41;4991952;23;20646;-78
2023/08/06 01:02:50;;;;;;;2.33;1.67;;;;;;;18.00;66.66;96278.38;4915990;28;20651;-79
2023/08/06 01:05:15;;;;;;;3.10;1.33;;;;;;;18.00;66.30;96279.16;4871306;28;20197;-78
2023/08/06 01:07:49;;;;;;;3.30;1.50;;;;;;;17.95;66.59;96271.41;4912468;28;20695;-79
2023/08/06 01:10:47;;;;;;;3.42;1.70;;;;;;;18.13;66.30;96267.66;4917796;28;20146;-78
2023/08/06 01:15:50;;;;;;;2.15;1.60;;;;;;;17.96;68.50;96273.75;5336161;23;20208;-79
2023/08/06 01:18:15;;;;;;;2.60;1.77;;;;;;;17.73;68.72;96264.47;4989861;28;20188;-77
2023/08/06 01:20:41;;;;;;;1.45;1.35;;;;;;;17.81;68.78;96279.47;4949113;28;20226;-79
2023/08/06 01:23:06;;;;;;;2.88;1.60;;;;;;;17.63;69.40;96272.69;4966143;28;20263;-79
2023/08/06 01:25:49;;;;;;;3.60;1.85;;;;;;;17.58;70.02;96278.88;4976947;28;20287;-80
2023/08/06 01:28:21;;;;;;;3.38;1.73;;;;;;;17.43;69.97;96261.72;4973787;28;20225;-78
2023/08/06 01:30:47;;;;;;;3.03;1.55;;;;;;;17.23;70.21;96277.03;4957968;28;20502;-77
2023/08/06 01:33:16;;;;;;;2.60;1.50;;;;;;;17.34;70.28;96282.78;4926245;28;20200;-78
2023/08/06 01:35:42;;;;;;;2.42;1.27;;;;;;;17.37;69.76;96268.97;4957581;28;20193;-79
2023/08/06 01:38:07;;;;;;;2.58;1.48;;;;;;;17.40;69.73;96275.50;4942952;28;20204;-78
2023/08/06 01:40:34;;;;;;;2.97;1.58;;;;;;;17.48;70.36;96268.66;4928821;28;20185;-79
2023/08/06 01:42:59;;;;;;;1.88;1.50;;;;;;;17.42;69.85;96258.31;4962832;28;20204;-79
2023/08/06 01:45:24;;;;;;;2.03;1.60;;;;;;;17.51;69.86;96260.16;4938424;28;20246;-79
2023/08/06 01:47:50;;;;;;;2.08;1.65;;;;;;;17.57;70.03;96253.66;4936001;28;20195;-79
2023/08/06 01:50:15;;;;;;;1.88;1.45;;;;;;;17.37;70.05;96253.19;4972412;28;20396;-79
2023/08/06 01:52:41;;;;;;;3.20;1.70;;;;;;;17.44;70.18;96258.00;4937005;28;20188;-79
2023/08/06 01:55:06;;;;;;;4.75;2.15;;;;;;;17.35;70.33;96250.09;4947887;28;20539;-79
2023/08/06 01:57:32;;;;;;;2.92;1.83;;;;;;;17.45;69.68;96253.53;4970892;28;20356;-79
2023/08/06 01:59:58;;;;;;;5.25;2.00;;;;;;;17.53;69.10;96244.81;4970147;28;20333;-78
2023/08/06 02:02:23;;;;;;;2.67;1.70;;;;;;;17.34;69.94;96243.31;4945292;28;20322;-78
2023/08/06 02:04:49;;;;;;;3.65;1.83;;;;;;;17.41;69.28;96248.88;4978646;28;20275;-78
2023/08/06 02:07:14;;;;;;;3.25;1.50;;;;;;;17.45;68.92;96233.22;4931656;28;20790;-80
2023/08/06 02:09:39;;;;;;;2.10;1.60;;;;;;;17.47;69.80;96240.81;4933632;28;20180;-79
2023/08/06 02:12:05;;;;;;;2.10;1.33;;;;;;;17.44;69.63;96234.31;4950376;28;20249;-78
2023/08/06 02:14:31;;;;;;;4.45;1.52;;;;;;;17.34;70.11;96232.78;4952522;28;20498;-79
2023/08/06 02:16:56;;;;;;;2.33;1.73;;;;;;;17.27;69.93;96232.47;4963972;28;20156;-80
2023/08/06 02:19:22;;;;;;;3.50;1.58;;;;;;;17.23;69.44;96242.06;4948041;28;20202;-78
2023/08/06 02:21:47;;;;;;;4.72;1.70;;;;;;;17.07;70.24;96230.44;4949101;28;20290;-80
2023/08/06 02:24:13;;;;;;;3.88;1.65;;;;;;;17.16;69.50;96231.25;4950708;28;20294;-78
2023/08/06 02:26:38;;;;;;;2.53;1.65;;;;;;;17.10;69.82;96228.00;4963858;28;20100;-78
2023/08/06 02:29:03;;;;;;;4.05;1.40;;;;;;;17.04;70.11;96219.47;4965197;28;20394;-78
2023/08/06 02:31:29;;;;;;;3.22;1.20;;;;;;;16.93;70.07;96223.50;4970231;28;20503;-79
2023/08/06 02:33:55;;;;;;;4.60;1.73;;;;;;;17.16;69.59;96220.72;4953554;28;20668;-79
2023/08/06 02:36:20;;;;;;;2.88;1.58;;;;;;;17.04;69.58;96213.44;4946564;28;21778;-78
2023/08/06 02:38:45;;;;;;;3.58;1.75;;;;;;;17.07;69.64;96214.66;4929569;28;20270;-80
2023/08/06 02:41:11;;;;;;;2.58;1.30;;;;;;;16.97;70.08;96213.91;4941025;28;20665;-79
2023/08/06 02:43:36;;;;;;;4.53;1.63;;;;;;;16.89;70.76;96211.28;4944556;28;20202;-78
2023/08/06 02:46:02;;;;;;;1.10;0.80;;;;;;;16.87;70.77;96224.72;4946747;28;20167;-79
2023/08/06 02:48:27;;;;;;;1.92;1.20;;;;;;;16.96;70.42;96217.59;4936640;28;20245;-78
2023/08/06 02:50:57;;;;;;;1.63;0.63;;;;;;;17.02;70.26;96220.88;4957858;28;20280;-80
2023/08/06 02:53:22;;;;;;;1.17;1.00;;;;;;;16.87;70.74;96224.72;4955338;28;20299;-79
2023/08/06 02:55:48;;;;;;;1.83;0.90;;;;;;;16.90;70.79;96223.34;4966209;23;20516;-80
2023/08/06 02:58:17;;;;;;;1.45;0.57;;;;;;;16.79;71.17;96209.69;4909600;28;20354;-79
2023/08/06 03:00:43;;;;;;;2.00;0.90;;;;;;;16.73;71.54;96224.06;4927697;28;20649;-80
2023/08/06 03:03:09;;;;;;;0.60;0.50;;;;;;;16.59;71.62;96219.72;4932665;28;20749;-81
2023/08/06 03:05:34;;;;;;;0.98;0.70;;;;;;;16.66;71.77;96212.16;4900730;28;20204;-79
2023/08/06 03:08:00;;;;;;;1.83;0.65;;;;;;;16.81;71.39;96216.19;4933705;28;20205;-80
2023/08/06 03:10:25;;;;;;;2.53;0.60;;;;;;;16.89;71.23;96219.94;4932721;28;20661;-80
2023/08/06 03:12:51;;;;;;;3.22;1.08;;;;;;;16.73;71.50;96219.56;4931972;28;20280;-79
2023/08/06 03:15:18;;;;;;;1.45;0.70;;;;;;;16.81;70.89;96210.13;5065636;23;20182;-80
2023/08/06 03:17:44;;;;;;;1.95;0.57;;;;;;;16.76;71.25;96205.03;4928819;28;20269;-80
2023/08/06 03:20:10;;;;;;;1.17;0.70;;;;;;;16.87;71.25;96214.22;4899485;28;20261;-81
2023/08/06 03:22:36;;;;;;;3.60;0.60;;;;;;;16.75;71.40;96206.13;5148619;23;20310;-79
2023/08/06 03:25:01;;;;;;;1.17;0.68;;;;;;;16.63;72.11;96206.72;4930639;28;20198;-79
2023/08/06 03:27:26;;;;;;;1.08;0.55;;;;;;;16.77;71.14;96207.34;4924580;28;20188;-79
2023/08/06 03:29:52;;;;;;;1.45;0.60;;;;;;;16.81;71.39;96207.50;4939513;28;20205;-79
2023/08/06 03:32:35;;;;;;;1.00;0.60;;;;;;;16.84;72.04;96209.56;5048572;23;20150;-79
2023/08/06 03:35:00;;;;;;;1.17;0.77;;;;;;;16.74;71.83;96207.19;4940610;28;20175;-79
2023/08/06 03:37:26;;;;;;;1.65;0.60;;;;;;;16.73;72.03;96197.78;5008014;22;20242;-80
2023/08/06 03:39:51;;;;;;;1.30;0.60;;;;;;;16.73;71.99;96208.31;4942686;28;20179;-79
2023/08/06 03:42:17;;;;;;;0.80;0.70;;;;;;;16.46;71.82;96191.69;4969664;23;20254;-78
2023/08/06 03:44:42;;;;;;;1.30;0.30;;;;;;;16.46;72.51;96200.34;4973794;23;20729;-80
2023/08/06 03:47:07;;;;;;;1.58;0.50;;;;;;;16.45;73.05;96198.03;4945877;28;20288;-79
2023/08/06 03:49:33;;;;;;;0.38;0.38;;;;;;;16.54;72.27;96193.56;4953511;28;20272;-79
2023/08/06 03:51:59;;;;;;;1.38;0.50;;;;;;;16.66;72.49;96199.00;5139082;23;20732;-79
2023/08/06 03:54:24;;;;;;;0.80;0.80;;;;;;;16.61;72.27;96196.53;4941774;23;20769;-79
2023/08/06 03:56:49;;;;;;;0.52;0.50;;;;;;;16.65;71.84;96205.31;4938503;28;20239;-78
2023/08/06 03:59:15;;;;;;;0.73;0.50;;;;;;;16.68;71.53;96198.69;4919662;28;20214;-80
2023/08/06 04:01:40;;;;;;;1.70;0.40;;;;;;;16.36;72.10;96195.38;4935462;23;20255;-78
2023/08/06 04:04:06;;;;;;;0.70;0.52;;;;;;;16.58;72.39;96202.38;4913920;28;20167;-79
2023/08/06 04:06:31;;;;;;;0.55;0.32;;;;;;;16.44;72.05;96204.38;4932210;28;20180;-80
2023/08/06 04:08:56;;;;;;;0.45;0.30;;;;;;;16.48;71.91;96200.03;4927549;28;20411;-80
2023/08/06 04:11:22;;;;;;;1.23;0.50;;;;;;;16.43;71.98;96195.72;4954677;28;20305;-79
2023/08/06 04:13:47;;;;;;;0.60;0.40;;;;;;;16.27;72.76;96195.34;4884765;28;20692;-79
2023/08/06 04:16:14;;;;;;;2.05;0.45;;;;;;;16.44;72.28;96197.25;4941334;28;20214;-79
2023/08/06 04:18:41;;;;;;;1.20;0.30;;;;;;;16.43;72.46;96205.44;4897554;28;20217;-79
2023/08/06 04:21:06;;;;;;;1.23;0.40;;;;;;;16.28;72.80;96196.16;4911201;28;20713;-79
2023/08/06 04:23:31;;;;;;;0.40;0.30;;;;;;;16.25;72.51;96207.25;4935857;28;20218;-80
2023/08/06 04:25:57;;;;;;;0.95;0.82;;;;;;;16.14;72.96;96198.09;4899433;28;20721;-79
2023/08/06 04:28:23;;;;;;;1.55;0.77;;;;;;;16.08;73.32;96203.47;4892132;28;20243;-80
2023/08/06 04:30:48;;;;;;;1.75;0.50;;;;;;;16.24;72.80;96203.06;4925699;28;20644;-80
2023/08/06 04:33:14;;;;;;;2.15;0.50;;;;;;;16.31;72.98;96202.63;4931079;28;20610;-79
2023/08/06 04:35:39;;;;;;;0.57;0.40;;;;;;;16.23;73.67;96201.53;4922120;28;20627;-79
2023/08/06 04:38:05;;;;;;;0.52;0.43;;;;;;;16.22;73.35;96203.38;4937714;28;20710;-80
2023/08/06 04:40:33;;;;;;;0.90;0.52;;;;;;;16.31;73.06;96202.63;4927772;28;20254;-78
2023/08/06 04:42:58;;;;;;;1.52;0.40;;;;;;;16.34;72.80;96196.78;4908300;28;20605;-78
2023/08/06 04:45:24;;;;;;;0.77;0.47;;;;;;;16.31;72.96;96194.75;4931961;28;20246;-78
2023/08/06 04:47:49;;;;;;;1.27;0.40;;;;;;;16.32;72.99;96196.31;4918114;28;20193;-79
2023/08/06 04:50:15;;;;;;;0.50;0.40;;;;;;;16.34;72.75;96196.78;4890465;28;20713;-78
2023/08/06 04:52:40;;;;;;;3.17;0.40;;;;;;;16.23;72.85;96191.81;4907943;28;20165;-80
2023/08/06 04:55:06;;;;;;;0.98;0.70;;;;;;;16.06;73.74;96194.38;4937192;28;20251;-79
2023/08/06 04:57:31;;;;;;;2.05;0.50;;;;;;;16.23;73.28;96204.94;4893617;28;20714;-79
2023/08/06 04:59:57;;;;;;;1.08;0.47;;;;;;;16.08;73.75;96192.97;4915366;28;20727;-79
2023/08/06 05:02:22;;;;;;;0.90;0.28;;;;;;;16.17;72.97;96197.50;4921536;28;20278;-79
2023/08/06 05:04:47;;;;;;;0.40;0.40;;;;;;;16.16;73.53;96199.34;4892396;28;20191;-79
2023/08/06 05:07:13;;;;;;;0.57;0.50;;;;;;;16.13;73.43;96197.34;4870822;28;20197;-78
2023/08/06 05:09:38;;;;;;;0.85;0.50;;;;;;;16.05;73.30;96185.72;4871352;28;20703;-78
2023/08/06 05:12:04;;;;;;;1.05;0.40;;;;;;;16.19;73.72;96200.59;4889016;28;20213;-80
2023/08/06 05:14:29;;;;;;;1.23;0.50;;;;;;;16.09;73.30;96191.91;4889552;28;20284;-79
2023/08/06 05:16:55;;;;;;;0.50;0.50;;;;;;;16.13;73.32;96191.31;4911080;28;20183;-78
2023/08/06 05:19:20;;;;;;;0.60;0.50;;;;;;;16.23;72.71;96197.06;4894890;28;20249;-79
2023/08/06 05:21:45;;;;;;;0.82;0.40;;;;;;;16.22;73.83;96203.38;4887302;28;20185;-80
2023/08/06 05:24:12;;;;;;;0.50;0.47;;;;;;;16.20;73.67;96202.16;4911662;28;20194;-79
2023/08/06 05:26:37;;;;;;;0.73;0.57;;;;;;;16.32;73.03;96206.81;4914015;28;20386;-79
2023/08/06 05:29:02;;;;;;;1.45;0.60;;;;;;;16.31;73.00;96205.25;4880968;28;20279;-79
2023/08/06 05:31:28;;;;;;;2.95;0.93;;;;;;;16.19;73.21;96196.09;4892571;28;20112;-79
2023/08/06 05:33:54;;;;;;;1.27;0.63;;;;;;;16.32;73.86;96199.72;4895982;28;20198;-79
2023/08/06 05:36:20;;;;;;;2.17;0.60;;;;;;;16.31;73.79;96215.78;4909476;28;20288;-80
2023/08/06 05:38:45;;;;;;;0.70;0.50;;;;;;;16.23;73.73;96218.06;4921386;28;20232;-79
2023/08/06 05:41:10;;;;;;;0.88;0.60;;;;;;;16.20;74.21;96217.91;4867527;28;20787;-79
2023/08/06 05:43:36;;;;;;;1.05;0.85;;;;;;;16.25;74.20;96213.28;4885200;28;20377;-79
2023/08/06 05:46:01;;;;;;;0.90;0.40;;;;;;;16.35;73.93;96211.44;4899451;28;20225;-78
2023/08/06 05:48:27;;;;;;;0.55;0.55;;;;;;;16.39;73.32;96207.16;4879541;28;20293;-79
2023/08/06 05:50:53;;;;;;;2.88;0.60;;;;;;;16.36;73.35;96215.63;4889837;28;20256;-80
2023/08/06 05:53:18;;;;;;;0.85;0.50;;;;;;;16.35;73.99;96212.25;4882606;28;20300;-79
2023/08/06 05:55:45;;;;;;;1.40;0.45;;;;;;;16.41;73.97;96215.50;4871598;28;20175;-79
2023/08/06 05:58:10;;;;;;;0.75;0.40;;;;;;;16.31;73.40;96202.63;4899992;28;20604;-78
2023/08/06 06:00:35;;;;;;;0.38;0.32;;;;;;;16.42;73.34;96214.41;4886218;28;20373;-79
2023/08/06 06:03:02;;;;;;;0.93;0.40;;;;;;;16.48;73.20;96215.81;4897441;28;20249;-79
2023/08/06 06:05:28;;;;;;;0.80;0.40;;;;;;;16.45;73.31;96219.03;4886523;28;20411;-79
2023/08/06 06:07:53;;;;;;;0.50;0.50;;;;;;;16.51;73.14;96219.69;4914046;28;20501;-79
2023/08/06 06:10:18;;;;;;;0.60;0.50;;;;;;;16.50;73.08;96220.75;4905210;28;20098;-79
2023/08/06 06:12:44;;;;;;;1.23;0.68;;;;;;;16.44;73.53;96213.03;4888865;28;20276;-79
2023/08/06 06:15:10;;;;;;;0.70;0.70;;;;;;;16.50;73.74;96221.53;4904860;28;20289;-79
2023/08/06 06:17:35;;;;;;;0.95;0.47;;;;;;;16.52;73.86;96216.75;4885549;28;20203;-79
2023/08/06 06:20:00;;;;;;;0.35;0.30;;;;;;;16.53;73.34;96225.41;4896762;28;20346;-78
2023/08/06 06:22:26;;;;;;;0.50;0.30;;;;;;;16.48;73.06;96218.44;4908398;28;20206;-79
2023/08/06 06:24:51;;;;;;;0.40;0.30;;;;;;;16.52;73.50;96222.03;4875741;28;20242;-79
2023/08/06 06:27:17;;;;;;;0.30;0.30;;;;;;;16.42;73.14;96207.31;4881954;28;20277;-78
2023/08/06 06:29:42;;;;;;;0.20;0.20;;;;;;;16.56;73.02;96225.56;4922089;28;20347;-80
2023/08/06 06:32:07;;;;;;;0.68;0.40;;;;;;;16.50;74.06;96224.16;4891719;28;20519;-80
2023/08/06 06:34:33;;;;;;;0.30;0.30;;;;;;;16.53;73.75;96235.94;4901456;28;20253;-80
2023/08/06 06:36:58;;;;;;;0.30;0.30;;;;;;;16.54;72.60;96227.75;4886744;28;20212;-79
2023/08/06 06:39:24;;;;;;;0.55;0.50;;;;;;;16.49;73.51;96225.25;4895609;28;20204;-79
2023/08/06 06:41:49;;;;;;;0.30;0.30;;;;;;;16.47;73.66;96240.56;4902271;28;20135;-79
2023/08/06 06:44:15;;;;;;;0.73;0.30;;;;;;;16.52;73.44;96231.75;4915142;28;20602;-79
2023/08/06 06:46:40;;;;;;;1.25;0.47;;;;;;;16.34;74.33;96244.06;4920105;28;20111;-79
2023/08/06 06:49:06;;;;;;;0.47;0.47;;;;;;;16.50;74.00;96242.56;4889238;28;20344;-80
2023/08/06 06:51:31;;;;;;;0.82;0.70;;;;;;;16.62;73.48;96237.50;4904545;28;20336;-79
2023/08/06 06:53:57;;;;;;;2.22;0.70;;;;;;;16.54;74.66;96237.47;4908553;28;20205;-78
2023/08/06 06:56:23;;;;;;;1.05;0.82;;;;;;;16.65;73.42;96238.72;4885887;28;20206;-81
2023/08/06 06:58:48;;;;;;;0.88;0.75;;;;;;;16.74;73.46;96246.63;4911281;28;20260;-80
2023/08/06 07:01:14;;;;;;;1.15;0.85;;;;;;;16.77;74.15;96246.78;4894799;28;20276;-80
2023/08/06 07:03:40;;;;;;;0.75;0.73;;;;;;;16.91;72.88;96244.06;4894422;28;20680;-80
2023/08/06 07:06:06;;;;;;;1.17;0.95;;;;;;;16.88;73.31;96254.41;4895868;28;20287;-79
2023/08/06 07:08:32;;;;;;;3.10;1.27;;;;;;;16.95;72.93;96246.88;4923708;28;20526;-80
2023/08/06 07:11:05;;;;;;;1.30;0.90;;;;;;;17.07;72.85;96246.22;4899165;28;20283;-81
2023/08/06 07:13:35;;;;;;;2.95;0.90;;;;;;;16.98;73.48;96241.75;4928600;28;20269;-80
2023/08/06 07:16:01;;;;;;;5.45;0.68;;;;;;;17.01;72.62;96243.75;4884304;28;20197;-79
2023/08/06 07:18:27;;;;;;;1.20;0.60;;;;;;;16.96;72.93;96240.50;4896923;28;20675;-81
2023/08/06 07:20:53;;;;;;;0.60;0.60;;;;;;;16.99;73.53;96248.56;4987458;23;20173;-80
2023/08/06 07:23:24;;;;;;;1.48;0.70;;;;;;;17.05;72.87;96251.81;4905890;28;20233;-80
2023/08/06 07:25:49;;;;;;;0.47;0.47;;;;;;;17.04;72.20;96255.53;4901523;28;20264;-80
2023/08/06 07:28:15;;;;;;;0.50;0.50;;;;;;;16.94;72.86;96261.84;4921488;28;20273;-82
2023/08/06 07:30:44;;;;;;;1.05;0.40;;;;;;;16.98;72.53;96259.38;4868341;28;20180;-81
2023/08/06 07:33:10;;;;;;;0.40;0.40;;;;;;;17.01;72.45;96270.03;4888605;28;20365;-81
2023/08/06 07:35:35;;;;;;;0.57;0.57;;;;;;;17.01;72.47;96269.28;4912159;28;20231;-80
2023/08/06 07:38:01;;;;;;;0.93;0.63;;;;;;;17.01;73.06;96272.69;4927560;28;20627;-81
2023/08/06 07:40:27;;;;;;;0.63;0.50;;;;;;;16.99;72.82;96269.59;4913922;28;20294;-78
2023/08/06 07:42:52;;;;;;;0.90;0.60;;;;;;;16.97;73.48;96274.38;4915734;28;20293;-81
2023/08/06 07:45:18;;;;;;;1.40;0.52;;;;;;;16.84;73.34;96268.19;4893153;28;20580;-82
2023/08/06 07:47:44;;;;;;;0.30;0.30;;;;;;;16.92;72.87;96273.78;4928635;28;20206;-80
2023/08/06 07:50:09;;;;;;;0.50;0.50;;;;;;;16.97;73.31;96274.38;4886401;28;20160;-80
2023/08/06 07:52:35;;;;;;;0.30;0.30;;;;;;;17.03;73.21;96262.66;4927855;28;20670;-79
2023/08/06 07:55:04;;;;;;;0.93;0.40;;;;;;;16.91;73.15;96272.97;4905148;28;20144;-79
2023/08/06 07:57:34;;;;;;;0.40;0.32;;;;;;;17.02;71.85;96270.84;4917777;28;20140;-80
2023/08/06 07:59:59;;;;;;;0.40;0.40;;;;;;;17.03;72.14;96264.47;4917302;28;20343;-80
2023/08/06 08:02:25;;;;;;;1.15;0.73;;;;;;;16.93;74.26;96262.94;4905798;28;20676;-80
2023/08/06 08:04:50;;;;;;;0.20;0.20;;;;;;;17.01;72.21;96267.41;4906185;28;20218;-80
2023/08/06 08:07:16;;;;;;;1.02;0.40;;;;;;;17.06;71.99;96261.25;4917031;28;20169;-81
2023/08/06 08:09:41;;;;;;;0.30;0.30;;;;;;;16.81;74.32;96262.72;4889628;28;20356;-81
2023/08/06 08:12:07;;;;;;;0.30;0.30;;;;;;;16.92;73.54;96268.50;4890162;28;20209;-80
2023/08/06 08:14:38;;;;;;;0.30;0.30;;;;;;;17.12;73.07;96267.13;4903135;28;20234;-79
2023/08/06 08:17:05;;;;;;;0.52;0.40;;;;;;;17.19;72.27;96277.97;4894929;28;20672;-81
2023/08/06 08:19:31;;;;;;;0.43;0.40;;;;;;;17.32;71.86;96282.28;4867423;28;20273;-81
2023/08/06 08:21:56;;;;;;;0.50;0.30;;;;;;;17.20;72.53;96269.00;4919753;28;20224;-81
2023/08/06 08:24:25;;;;;;;0.75;0.40;;;;;;;17.32;72.91;96277.03;4877495;28;20754;-80
2023/08/06 08:26:52;;;;;;;0.50;0.40;;;;;;;17.36;71.92;96271.94;4888612;28;20262;-80
2023/08/06 08:29:17;;;;;;;0.63;0.30;;;;;;;17.19;72.96;96268.22;4864740;28;20326;-80
2023/08/06 08:31:43;;;;;;;0.40;0.40;;;;;;;17.16;72.46;96268.84;4858042;28;20274;-81
2023/08/06 08:34:09;;;;;;;0.40;0.40;;;;;;;17.20;72.33;96269.00;4887251;28;20284;-82
2023/08/06 08:36:34;;;;;;;0.50;0.43;;;;;;;17.03;73.19;96275.81;4876685;28;20413;-80
2023/08/06 08:38:59;;;;;;;0.40;0.40;;;;;;;17.17;72.84;96273.03;4874452;28;20719;-81
2023/08/06 08:41:27;;;;;;;0.80;0.80;;;;;;;17.05;72.55;96267.59;4900185;28;20340;-82
2023/08/06 08:43:53;;;;;;;0.30;0.30;;;;;;;16.87;73.25;96264.16;4897714;28;20288;-78
2023/08/06 08:46:19;;;;;;;0.50;0.40;;;;;;;16.85;72.84;96268.97;4864372;28;20197;-80
2023/08/06 08:48:45;;;;;;;0.40;0.30;;;;;;;16.72;73.30;96261.94;4877063;28;20213;-82
2023/08/06 08:51:11;;;;;;;0.30;0.30;;;;;;;16.78;72.53;96279.13;4899883;28;20184;-82
2023/08/06 08:53:39;;;;;;;0.85;0.32;;;;;;;16.61;72.61;96275.38;4880636;28;20294;-81
2023/08/06 08:56:05;;;;;;;0.50;0.50;;;;;;;16.73;72.92;96287.94;4913512;28;20283;-80
2023/08/06 08:58:31;;;;;;;0.30;0.30;;;;;;;16.82;72.76;96290.56;4901906;28;20209;-80
2023/08/06 09:00:57;;;;;;;0.20;0.20;;;;;;;16.88;72.84;96291.22;4916326;28;20277;-80
2023/08/06 09:03:23;;;;;;;0.40;0.35;;;;;;;16.78;72.52;96297.53;4933493;23;20241;-82
2023/08/06 09:05:52;;;;;;;0.65;0.30;;;;;;;16.69;72.09;96291.47;4937154;28;20233;-80
2023/08/06 09:08:19;;;;;;;0.20;0.20;;;;;;;16.59;72.18;96309.06;4954315;28;20168;-81
2023/08/06 09:10:45;;;;;;;0.20;0.20;;;;;;;16.40;72.73;96303.25;4935932;28;20694;-80
2023/08/06 09:13:12;;;;;;;0.20;0.20;;;;;;;16.55;72.88;96313.38;4941749;28;20359;-81
2023/08/06 09:15:37;;;;;;;0.30;0.20;;;;;;;16.60;72.69;96302.72;4924224;28;20212;-81
2023/08/06 09:18:10;;;;;;;0.75;0.30;;;;;;;16.57;73.46;96310.44;4938809;28;20180;-82
2023/08/06 09:20:37;;;;;;;0.30;0.30;;;;;;;16.51;72.67;96309.81;4952153;28;20165;-80
2023/08/06 09:23:10;;;;;;;0.38;0.38;;;;;;;16.70;73.68;96319.31;4936599;28;20200;-81
2023/08/06 09:25:44;;;;;;;0.30;0.30;;;;;;;16.44;72.68;96317.34;4922130;28;20223;-81
2023/08/06 09:28:09;;;;;;;0.40;0.40;;;;;;;16.48;72.55;96313.81;4919171;28;20511;-79
2023/08/06 09:30:38;;;;;;;0.50;0.50;;;;;;;16.34;72.36;96331.53;4956928;28;20218;-80
2023/08/06 09:33:10;;;;;;;1.25;0.30;;;;;;;16.54;72.81;96332.84;4930768;28;20832;-80
2023/08/06 09:35:35;;;;;;;0.63;0.40;;;;;;;16.55;72.19;96334.38;4951701;28;20551;-81
2023/08/06 09:38:09;;;;;;;0.50;0.50;;;;;;;16.41;72.36;96344.22;4952322;28;20276;-81
2023/08/06 09:40:34;;;;;;;0.73;0.45;;;;;;;16.35;72.43;96345.41;4931760;28;20126;-81
2023/08/06 09:43:00;;;;;;;0.40;0.40;;;;;;;16.51;72.27;96343.19;4934067;28;20196;-81
2023/08/06 09:45:34;;;;;;;0.40;0.32;;;;;;;16.41;73.11;96354.75;4932665;28;20307;-81
2023/08/06 09:48:03;;;;;;;0.75;0.40;;;;;;;16.42;73.75;96356.28;4920007;28;20291;-81
2023/08/06 09:50:36;;;;;;;0.43;0.38;;;;;;;16.37;72.99;96357.19;4917340;28;20693;-81
2023/08/06 09:53:01;;;;;;;1.10;0.40;;;;;;;16.32;72.22;96352.06;4917469;28;20469;-81
2023/08/06 09:55:27;;;;;;;0.47;0.30;;;;;;;16.16;72.85;96343.81;4931108;28;20188;-82
2023/08/06 09:57:53;;;;;;;0.43;0.43;;;;;;;16.27;73.84;96370.59;4947049;28;20181;-81
2023/08/06 10:00:19;;;;;;;0.75;0.43;;;;;;;16.28;73.61;96365.03;4950815;28;20161;-82
2023/08/06 10:02:45;;;;;;;0.40;0.40;;;;;;;16.45;72.91;96380.13;4931410;28;20172;-80
2023/08/06 10:05:10;;;;;;;0.40;0.35;;;;;;;16.45;73.10;96380.13;4949166;28;20676;-81
2023/08/06 10:07:36;;;;;;;0.52;0.52;;;;;;;16.40;73.03;96379.44;4950458;28;20292;-82
2023/08/06 10:10:02;;;;;;;0.75;0.50;;;;;;;16.43;73.71;96386.72;4930908;28;20191;-81
2023/08/06 10:12:37;;;;;;;1.38;0.50;;;;;;;16.58;72.66;96393.47;4942643;28;20673;-80
2023/08/06 10:15:04;;;;;;;;;;;;;;;16.66;72.29;96390.88;4956771;28;20754;-82
2023/08/06 10:17:30;;;;;;;1.23;0.60;;;;;;;16.55;72.39;96386.19;4967287;28;19943;-82
2023/08/06 10:19:56;;;;;;;1.20;0.55;;;;;;;16.27;72.61;96396.84;4967124;28;20666;-82
2023/08/06 10:22:23;;;;;;;1.33;0.60;;;;;;;16.35;73.21;96400.59;4935331;28;20291;-81
2023/08/06 10:24:56;;;;;;;0.80;0.80;;;;;;;16.46;73.16;96401.91;4933769;28;20207;-82
2023/08/06 10:27:52;;;;;;;1.00;0.88;;;;;;;16.64;72.59;96408.81;4953433;28;20332;-81
2023/08/06 10:30:25;;;;;;;0.80;0.70;;;;;;;16.53;72.23;96412.75;4934970;28;20186;-80
2023/08/06 10:32:56;;;;;;;1.48;0.57;;;;;;;16.50;71.84;96409.97;4971832;28;20186;-81
2023/08/06 10:35:38;;;;;;;1.05;0.90;;;;;;;16.55;72.48;96417.72;4953189;28;20206;-80
2023/08/06 10:38:05;;;;;;;1.63;0.90;;;;;;;16.53;73.13;96419.88;4971410;28;20705;-81
2023/08/06 10:40:32;;;;;;;1.38;0.98;;;;;;;16.63;72.40;96428.25;4975207;28;20307;-80
2023/08/06 10:43:01;;;;;;;1.38;0.85;;;;;;;16.54;71.47;96430.09;4952714;28;20208;-79
2023/08/06 10:45:28;;;;;;;0.88;0.70;;;;;;;16.55;72.16;96428.22;5073398;23;20758;-80
2023/08/06 10:47:57;;;;;;;1.15;0.90;;;;;;;16.55;72.08;96423.72;4951094;28;20615;-80
2023/08/06 10:50:23;;;;;;;0.95;0.77;;;;;;;16.42;71.52;96440.38;4930889;28;20587;-81
2023/08/06 10:52:49;;;;;;;1.58;0.90;;;;;;;16.59;72.05;96450.97;4949555;28;20193;-82
2023/08/06 10:55:22;;;;;;;1.65;1.35;;;;;;;16.76;70.37;96452.94;4916649;28;20277;-79
2023/08/06 10:57:48;;;;;;;0.93;0.63;;;;;;;16.81;70.67;96457.25;4915391;28;20283;-80
2023/08/06 11:00:14;;;;;;;1.00;0.90;;;;;;;16.93;70.43;96462.78;4951609;28;20547;-81
2023/08/06 11:02:39;;;;;;;1.83;1.00;;;;;;;16.90;70.60;96454.72;4928513;28;20282;-79
2023/08/06 11:05:08;;;;;;;1.50;1.10;;;;;;;17.02;71.70;96455.69;4936565;28;20298;-78
2023/08/06 11:07:35;;;;;;;1.17;0.85;;;;;;;16.98;70.60;96453.97;4919070;28;20165;-79
2023/08/06 11:10:11;;;;;;;1.23;1.00;;;;;;;17.23;69.68;96466.44;4938788;28;20191;-81
2023/08/06 11:12:37;;;;;;;1.95;1.35;;;;;;;17.14;70.17;96459.63;4916114;28;20653;-79
2023/08/06 11:15:03;;;;;;;1.17;0.90;;;;;;;17.10;69.59;96469.19;4921096;28;20187;-79
2023/08/06 11:17:31;;;;;;;1.42;0.82;;;;;;;17.08;70.00;96487.13;4949127;28;20165;-79
2023/08/06 11:20:03;;;;;;;2.05;1.30;;;;;;;17.26;69.48;96485.34;4950514;28;20446;-79
2023/08/06 11:22:28;;;;;;;2.15;1.40;;;;;;;17.26;69.79;96482.72;4920723;28;20216;-79
2023/08/06 11:24:54;;;;;;;1.83;1.60;;;;;;;17.31;69.77;96488.63;4935983;28;20320;-79
2023/08/06 11:27:19;;;;;;;1.02;0.93;;;;;;;17.36;67.97;96493.75;4908734;28;20196;-79
2023/08/06 11:29:45;;;;;;;2.50;1.10;;;;;;;17.38;67.74;96496.84;4937320;28;20216;-80
2023/08/06 11:32:11;;;;;;;1.10;1.10;;;;;;;17.48;67.52;96485.28;4921586;28;20243;-80
2023/08/06 11:34:37;;;;;;;0.90;0.90;;;;;;;17.43;69.29;96503.84;4922120;28;20770;-79